createdAt,value
2022-12-14T00:00:58.821Z,21.00
2022-12-14T00:01:55.234Z,21.30
2022-12-14T00:02:55.353Z,20.10
2022-12-14T00:03:55.967Z,22.20
2022-12-14T00:04:55.219Z,20.20
2022-12-14T00:05:55.214Z,20.10
2022-12-14T00:06:55.201Z,21.00
2022-12-14T00:07:55.204Z,19.80
2022-12-14T00:08:55.796Z,21.20
2022-12-14T00:09:55.162Z,21.40
2022-12-14T00:10:58.665Z,20.20
2022-12-14T00:11:55.128Z,19.20
2022-12-14T00:12:55.149Z,20.30
2022-12-14T00:13:55.149Z,17.90
2022-12-14T00:14:55.796Z,17.20
2022-12-14T00:15:58.613Z,18.70
2022-12-14T00:16:55.091Z,17.90
2022-12-14T00:17:55.099Z,18.80
2022-12-14T00:18:55.755Z,18.50
2022-12-14T00:19:55.057Z,19.50
2022-12-14T00:20:55.089Z,18.90
2022-12-14T00:21:55.045Z,18.60
2022-12-14T00:22:55.034Z,20.30
2022-12-14T00:23:55.028Z,19.90
2022-12-14T00:24:55.055Z,19.10
2022-12-14T00:25:56.634Z,18.60
2022-12-14T00:26:55.032Z,18.80
2022-12-14T00:27:55.687Z,19.70
2022-12-14T00:28:56.525Z,19.20
2022-12-14T00:29:54.986Z,18.80
2022-12-14T00:30:58.228Z,17.50
2022-12-14T00:31:54.970Z,19.40
2022-12-14T00:32:54.948Z,19.90
2022-12-14T00:33:54.918Z,19.20
2022-12-14T00:34:54.915Z,20.80
2022-12-14T00:35:56.520Z,21.30
2022-12-14T00:36:54.927Z,19.00
2022-12-14T00:37:58.378Z,19.60
2022-12-14T00:38:55.603Z,19.60
2022-12-14T00:39:54.872Z,20.50
2022-12-14T00:40:56.431Z,19.30
2022-12-14T00:41:57.132Z,18.20
2022-12-14T00:42:54.833Z,20.30
2022-12-14T00:43:54.851Z,20.50
2022-12-14T00:44:55.493Z,20.50
2022-12-14T00:45:54.886Z,19.90
2022-12-14T00:46:54.838Z,18.80
2022-12-14T00:47:54.785Z,19.40
2022-12-14T00:48:54.797Z,20.00
2022-12-14T00:49:54.768Z,20.60
2022-12-14T00:50:56.373Z,21.20
2022-12-14T00:51:54.791Z,21.20
2022-12-14T00:52:54.769Z,21.40
2022-12-14T00:53:54.754Z,19.80
2022-12-14T00:54:56.340Z,21.60
2022-12-14T00:55:58.281Z,19.90
2022-12-14T00:56:58.197Z,20.80
2022-12-14T00:57:54.687Z,21.30
2022-12-14T00:58:54.698Z,19.30
2022-12-14T00:59:54.657Z,20.50
2022-12-14T01:00:54.658Z,19.30
2022-12-14T01:01:55.447Z,20.70
2022-12-14T01:02:55.339Z,21.60
2022-12-14T01:03:56.249Z,18.60
2022-12-14T01:04:54.642Z,18.90
2022-12-14T01:05:54.611Z,19.20
2022-12-14T01:06:54.606Z,19.90
2022-12-14T01:07:55.208Z,19.50
2022-12-14T01:08:55.252Z,19.90
2022-12-14T01:09:56.186Z,18.10
2022-12-14T01:10:54.571Z,19.60
2022-12-14T01:11:54.557Z,17.30
2022-12-14T01:12:55.178Z,19.40
2022-12-14T01:13:54.529Z,20.10
2022-12-14T01:14:57.143Z,19.60
2022-12-14T01:15:54.571Z,22.10
2022-12-14T01:16:54.505Z,20.30
2022-12-14T01:17:54.494Z,21.70
2022-12-14T01:18:54.489Z,18.90
2022-12-14T01:19:55.036Z,20.80
2022-12-14T01:20:54.487Z,24.40
2022-12-14T01:21:55.152Z,19.80
2022-12-14T01:22:56.087Z,17.50
2022-12-14T01:23:54.424Z,21.30
2022-12-14T01:24:54.434Z,21.00
2022-12-14T01:25:54.412Z,19.80
2022-12-14T01:26:54.427Z,19.10
2022-12-14T01:27:54.395Z,18.70
2022-12-14T01:28:54.395Z,17.50
2022-12-14T01:29:57.835Z,17.80
2022-12-14T01:30:57.064Z,18.40
2022-12-14T01:31:54.379Z,17.30
2022-12-14T01:32:54.342Z,18.00
2022-12-14T01:33:54.331Z,19.00
2022-12-14T01:34:54.321Z,19.30
2022-12-14T01:35:54.925Z,17.90
2022-12-14T01:36:54.328Z,17.50
2022-12-14T01:37:54.918Z,17.10
2022-12-14T01:38:54.300Z,19.40
2022-12-14T01:39:54.273Z,18.30
2022-12-14T01:40:54.263Z,19.20
2022-12-14T01:41:54.286Z,20.50
2022-12-14T01:42:54.245Z,18.10
2022-12-14T01:43:54.241Z,19.20
2022-12-14T01:44:58.483Z,19.70
2022-12-14T01:45:54.214Z,19.90
2022-12-14T01:46:57.716Z,19.10
2022-12-14T01:47:54.219Z,17.60
2022-12-14T01:48:54.188Z,20.60
2022-12-14T01:49:54.167Z,20.30
2022-12-14T01:50:55.012Z,19.10
2022-12-14T01:51:57.648Z,21.50
2022-12-14T01:52:55.785Z,22.10
2022-12-14T01:53:54.136Z,21.20
2022-12-14T01:54:55.723Z,18.60
2022-12-14T01:55:55.716Z,21.00
2022-12-14T01:56:54.118Z,17.30
2022-12-14T01:57:55.658Z,18.00
2022-12-14T01:58:55.660Z,21.60
2022-12-14T02:00:00.909Z,19.00
2022-12-14T02:00:54.080Z,21.40
2022-12-14T02:01:54.175Z,20.20
2022-12-14T02:02:54.805Z,19.70
2022-12-14T02:03:54.087Z,18.80
2022-12-14T02:04:54.030Z,17.90
2022-12-14T02:05:54.621Z,19.40
2022-12-14T02:07:00.845Z,19.90
2022-12-14T02:07:54.002Z,19.30
2022-12-14T02:08:54.668Z,19.40
2022-12-14T02:09:53.980Z,20.10
2022-12-14T02:10:54.058Z,17.30
2022-12-14T02:11:54.666Z,20.20
2022-12-14T02:13:00.512Z,17.50
2022-12-14T02:13:55.605Z,18.60
2022-12-14T02:14:53.939Z,20.50
2022-12-14T02:15:54.007Z,19.40
2022-12-14T02:16:55.498Z,20.00
2022-12-14T02:17:57.395Z,17.70
2022-12-14T02:18:53.883Z,20.50
2022-12-14T02:19:53.871Z,18.40
2022-12-14T02:20:55.580Z,19.60
2022-12-14T02:21:53.850Z,20.40
2022-12-14T02:22:55.504Z,20.60
2022-12-14T02:23:53.830Z,18.10
2022-12-14T02:24:55.439Z,18.60
2022-12-14T02:25:53.831Z,19.00
2022-12-14T02:26:53.838Z,19.90
2022-12-14T02:27:57.289Z,20.40
2022-12-14T02:28:57.265Z,20.80
2022-12-14T02:29:54.404Z,19.10
2022-12-14T02:30:55.385Z,16.90
2022-12-14T02:31:53.760Z,18.20
2022-12-14T02:32:55.658Z,17.10
2022-12-14T02:33:53.745Z,16.60
2022-12-14T02:34:53.739Z,16.90
2022-12-14T02:35:53.721Z,17.60
2022-12-14T02:36:54.526Z,16.40
2022-12-14T02:37:53.700Z,17.00
2022-12-14T02:38:53.702Z,17.60
2022-12-14T02:39:53.674Z,17.80
2022-12-14T02:40:53.678Z,20.30
2022-12-14T02:41:54.280Z,17.30
2022-12-14T02:42:53.677Z,20.30
2022-12-14T02:43:54.346Z,22.60
2022-12-14T02:44:53.631Z,19.00
2022-12-14T02:45:53.610Z,19.90
2022-12-14T02:46:53.634Z,21.20
2022-12-14T02:47:53.621Z,18.20
2022-12-14T02:48:53.604Z,20.80
2022-12-14T02:49:55.283Z,18.60
2022-12-14T02:50:53.577Z,20.30
2022-12-14T02:51:53.556Z,20.40
2022-12-14T02:52:53.550Z,19.40
2022-12-14T02:53:53.549Z,20.60
2022-12-14T02:54:53.526Z,21.70
2022-12-14T02:55:53.517Z,18.40
2022-12-14T02:56:53.518Z,18.30
2022-12-14T02:57:53.492Z,20.10
2022-12-14T02:58:54.153Z,20.80
2022-12-14T02:59:55.145Z,22.50
2022-12-14T03:00:57.148Z,19.10
2022-12-14T03:01:57.085Z,17.80
2022-12-14T03:02:54.205Z,17.00
2022-12-14T03:03:53.442Z,17.30
2022-12-14T03:04:53.440Z,18.90
2022-12-14T03:05:53.442Z,21.80
2022-12-14T03:06:53.436Z,19.60
2022-12-14T03:07:53.401Z,17.80
2022-12-14T03:08:53.394Z,19.30
2022-12-14T03:09:54.126Z,18.00
2022-12-14T03:10:56.978Z,19.20
2022-12-14T03:11:53.367Z,16.60
2022-12-14T03:12:54.000Z,20.90
2022-12-14T03:13:53.962Z,20.50
2022-12-14T03:14:53.333Z,19.60
2022-12-14T03:15:54.933Z,20.40
2022-12-14T03:16:53.328Z,18.40
2022-12-14T03:17:53.316Z,18.80
2022-12-14T03:18:54.924Z,21.60
2022-12-14T03:19:54.863Z,22.00
2022-12-14T03:20:53.995Z,19.00
2022-12-14T03:21:53.260Z,18.30
2022-12-14T03:22:53.278Z,17.40
2022-12-14T03:23:54.856Z,19.30
2022-12-14T03:24:53.935Z,19.80
2022-12-14T03:25:53.242Z,18.50
2022-12-14T03:26:53.243Z,20.10
2022-12-14T03:27:54.749Z,18.80
2022-12-14T03:28:53.202Z,18.70
2022-12-14T03:29:56.764Z,20.20
2022-12-14T03:31:01.217Z,20.30
2022-12-14T03:31:53.230Z,18.90
2022-12-14T03:32:54.701Z,16.30
2022-12-14T03:33:53.141Z,18.50
2022-12-14T03:34:53.140Z,17.90
2022-12-14T03:35:53.135Z,18.70
2022-12-14T03:36:53.139Z,19.60
2022-12-14T03:37:53.545Z,19.30
2022-12-14T03:38:53.752Z,17.60
2022-12-14T03:39:53.087Z,18.70
2022-12-14T03:40:53.070Z,16.90
2022-12-14T03:41:56.589Z,18.70
2022-12-14T03:42:53.063Z,18.90
2022-12-14T03:43:54.739Z,19.50
2022-12-14T03:44:53.034Z,19.00
2022-12-14T03:45:53.059Z,20.30
2022-12-14T03:46:53.019Z,19.50
2022-12-14T03:47:54.821Z,18.30
2022-12-14T03:48:53.639Z,17.40
2022-12-14T03:49:56.466Z,20.20
2022-12-14T03:50:52.978Z,20.80
2022-12-14T03:51:53.720Z,18.00
2022-12-14T03:52:52.945Z,17.40
2022-12-14T03:53:52.976Z,19.60
2022-12-14T03:54:52.938Z,17.30
2022-12-14T03:55:52.953Z,22.20
2022-12-14T03:56:53.463Z,17.80
2022-12-14T03:57:54.648Z,17.00
2022-12-14T03:58:57.146Z,19.40
2022-12-14T03:59:54.476Z,18.30
2022-12-14T04:00:52.931Z,18.20
2022-12-14T04:01:53.086Z,16.20
2022-12-14T04:02:52.923Z,18.10
2022-12-14T04:03:52.847Z,17.90
2022-12-14T04:04:52.836Z,16.60
2022-12-14T04:05:52.854Z,18.10
2022-12-14T04:06:52.812Z,18.20
2022-12-14T04:07:54.399Z,18.60
2022-12-14T04:08:53.407Z,16.60
2022-12-14T04:09:52.785Z,18.10
2022-12-14T04:10:54.470Z,19.70
2022-12-14T04:11:52.767Z,19.90
2022-12-14T04:12:52.762Z,20.70
2022-12-14T04:13:52.761Z,18.00
2022-12-14T04:14:54.343Z,18.20
2022-12-14T04:15:52.762Z,21.00
2022-12-14T04:16:52.803Z,20.10
2022-12-14T04:17:52.701Z,20.40
2022-12-14T04:18:58.986Z,19.00
2022-12-14T04:19:52.705Z,20.50
2022-12-14T04:20:52.673Z,17.20
2022-12-14T04:21:52.699Z,17.50
2022-12-14T04:22:52.652Z,17.40
2022-12-14T04:23:52.650Z,18.80
2022-12-14T04:24:54.279Z,17.70
2022-12-14T04:25:52.634Z,19.00
2022-12-14T04:26:54.179Z,18.30
2022-12-14T04:27:52.630Z,20.10
2022-12-14T04:28:52.591Z,19.70
2022-12-14T04:29:52.597Z,21.10
2022-12-14T04:30:52.564Z,17.90
2022-12-14T04:31:52.743Z,16.80
2022-12-14T04:32:52.588Z,17.20
2022-12-14T04:33:52.571Z,19.30
2022-12-14T04:34:52.541Z,18.40
2022-12-14T04:35:53.202Z,16.50
2022-12-14T04:36:52.520Z,17.60
2022-12-14T04:37:53.161Z,19.10
2022-12-14T04:38:52.501Z,20.10
2022-12-14T04:39:52.523Z,20.70
2022-12-14T04:40:52.465Z,16.90
2022-12-14T04:41:52.470Z,17.20
2022-12-14T04:42:52.453Z,20.30
2022-12-14T04:43:52.452Z,20.80
2022-12-14T04:44:52.456Z,20.80
2022-12-14T04:45:52.488Z,19.20
2022-12-14T04:46:53.952Z,20.90
2022-12-14T04:47:53.034Z,21.20
2022-12-14T04:48:52.396Z,17.90
2022-12-14T04:49:53.105Z,19.50
2022-12-14T04:50:56.069Z,19.60
2022-12-14T04:51:52.386Z,19.10
2022-12-14T04:52:52.348Z,21.10
2022-12-14T04:53:52.359Z,19.20
2022-12-14T04:54:52.332Z,16.40
2022-12-14T04:55:53.005Z,18.60
2022-12-14T04:56:53.854Z,16.30
2022-12-14T04:57:52.324Z,19.20
2022-12-14T04:58:52.307Z,20.60
2022-12-14T04:59:52.313Z,16.70
2022-12-14T05:00:52.348Z,16.00
2022-12-14T05:01:52.363Z,18.90
2022-12-14T05:02:52.915Z,20.20
2022-12-14T05:03:55.872Z,16.90
2022-12-14T05:04:52.228Z,18.00
2022-12-14T05:05:52.876Z,17.90
2022-12-14T05:06:52.215Z,17.60
2022-12-14T05:07:52.246Z,16.20
2022-12-14T05:08:52.196Z,18.50
2022-12-14T05:09:52.193Z,17.40
2022-12-14T05:10:52.801Z,18.50
2022-12-14T05:11:55.703Z,15.20
2022-12-14T05:12:52.194Z,17.50
2022-12-14T05:13:52.156Z,17.20
2022-12-14T05:14:52.174Z,16.20
2022-12-14T05:15:52.146Z,16.00
2022-12-14T05:16:52.200Z,17.90
2022-12-14T05:17:52.114Z,18.70
2022-12-14T05:18:52.123Z,17.70
2022-12-14T05:19:52.101Z,16.50
2022-12-14T05:20:52.543Z,17.30
2022-12-14T05:21:52.094Z,18.40
2022-12-14T05:22:52.095Z,18.30
2022-12-14T05:23:52.057Z,16.20
2022-12-14T05:24:52.044Z,17.10
2022-12-14T05:25:53.756Z,16.50
2022-12-14T05:26:52.640Z,14.70
2022-12-14T05:27:52.006Z,17.40
2022-12-14T05:28:52.002Z,17.50
2022-12-14T05:29:52.025Z,17.80
2022-12-14T05:30:52.019Z,16.40
2022-12-14T05:31:51.986Z,15.70
2022-12-14T05:32:51.990Z,17.80
2022-12-14T05:33:51.965Z,18.50
2022-12-14T05:34:51.935Z,15.30
2022-12-14T05:35:51.950Z,15.40
2022-12-14T05:36:51.939Z,17.60
2022-12-14T05:37:52.577Z,18.60
2022-12-14T05:38:51.935Z,16.30
2022-12-14T05:39:51.906Z,16.50
2022-12-14T05:40:52.514Z,16.90
2022-12-14T05:41:51.895Z,16.50
2022-12-14T05:42:55.699Z,16.20
2022-12-14T05:43:51.857Z,19.30
2022-12-14T05:44:53.551Z,16.90
2022-12-14T05:45:51.874Z,17.30
2022-12-14T05:46:51.818Z,17.60
2022-12-14T05:47:51.829Z,18.20
2022-12-14T05:48:51.805Z,18.30
2022-12-14T05:49:55.380Z,19.60
2022-12-14T05:50:52.508Z,19.00
2022-12-14T05:51:51.788Z,17.30
2022-12-14T05:52:51.759Z,16.60
2022-12-14T05:53:51.770Z,18.40
2022-12-14T05:54:52.667Z,18.90
2022-12-14T05:55:51.737Z,17.90
2022-12-14T05:56:51.721Z,17.40
2022-12-14T05:57:51.730Z,17.40
2022-12-14T05:58:51.703Z,17.90
2022-12-14T05:59:53.748Z,17.10
2022-12-14T06:00:52.395Z,16.40
2022-12-14T06:01:51.704Z,16.50
2022-12-14T06:02:53.401Z,16.10
2022-12-14T06:03:55.239Z,18.00
2022-12-14T06:04:51.672Z,16.00
2022-12-14T06:05:52.557Z,18.10
2022-12-14T06:06:52.261Z,17.90
2022-12-14T06:07:51.616Z,18.40
2022-12-14T06:08:55.161Z,16.70
2022-12-14T06:09:51.608Z,17.50
2022-12-14T06:10:51.622Z,18.30
2022-12-14T06:11:51.589Z,15.10
2022-12-14T06:12:51.589Z,16.30
2022-12-14T06:13:51.561Z,17.80
2022-12-14T06:14:51.547Z,18.10
2022-12-14T06:15:51.566Z,17.00
2022-12-14T06:16:53.155Z,17.40
2022-12-14T06:17:51.528Z,19.50
2022-12-14T06:18:51.529Z,18.00
2022-12-14T06:19:51.508Z,18.20
2022-12-14T06:20:53.035Z,16.50
2022-12-14T06:21:51.507Z,18.10
2022-12-14T06:22:52.028Z,15.50
2022-12-14T06:23:51.470Z,17.70
2022-12-14T06:24:51.442Z,18.70
2022-12-14T06:25:51.435Z,17.50
2022-12-14T06:26:53.069Z,16.60
2022-12-14T06:27:54.906Z,17.40
2022-12-14T06:28:51.406Z,18.00
2022-12-14T06:29:53.143Z,17.40
2022-12-14T06:30:53.108Z,19.80
2022-12-14T06:31:51.388Z,18.80
2022-12-14T06:32:51.388Z,18.90
2022-12-14T06:33:54.940Z,17.30
2022-12-14T06:34:54.922Z,17.10
2022-12-14T06:35:51.341Z,19.50
2022-12-14T06:36:54.805Z,19.00
2022-12-14T06:37:51.330Z,22.00
2022-12-14T06:38:51.330Z,21.20
2022-12-14T06:39:54.486Z,19.10
2022-12-14T06:40:51.280Z,20.50
2022-12-14T06:41:51.309Z,21.70
2022-12-14T06:42:51.272Z,19.90
2022-12-14T06:43:51.274Z,20.40
2022-12-14T06:44:52.055Z,18.60
2022-12-14T06:45:54.973Z,18.70
2022-12-14T06:46:51.289Z,20.30
2022-12-14T06:47:51.258Z,22.10
2022-12-14T06:48:52.003Z,19.30
2022-12-14T06:49:51.212Z,19.90
2022-12-14T06:50:51.188Z,17.90
2022-12-14T06:51:51.233Z,20.60
2022-12-14T06:52:51.170Z,19.60
2022-12-14T06:53:51.868Z,18.70
2022-12-14T06:54:51.785Z,20.30
2022-12-14T06:55:51.180Z,20.10
2022-12-14T06:56:51.130Z,21.70
2022-12-14T06:57:52.051Z,22.20
2022-12-14T06:58:51.050Z,16.90
2022-12-14T06:59:51.062Z,18.80
2022-12-14T07:00:52.574Z,18.60
2022-12-14T07:02:08.684Z,19.50
2022-12-14T07:02:51.275Z,20.70
2022-12-14T07:03:51.089Z,21.10
2022-12-14T07:04:52.725Z,20.10
2022-12-14T07:05:51.054Z,22.00
2022-12-14T07:06:52.081Z,19.50
2022-12-14T07:07:50.962Z,19.90
2022-12-14T07:08:51.565Z,22.50
2022-12-14T07:09:50.946Z,22.50
2022-12-14T07:10:51.575Z,19.30
2022-12-14T07:11:50.924Z,21.90
2022-12-14T07:12:50.945Z,21.00
2022-12-14T07:13:52.063Z,23.20
2022-12-14T07:14:50.913Z,21.00
2022-12-14T07:15:50.937Z,20.00
2022-12-14T07:16:50.918Z,21.10
2022-12-14T07:17:51.572Z,19.10
2022-12-14T07:18:51.638Z,19.40
2022-12-14T07:19:50.849Z,23.50
2022-12-14T07:20:50.858Z,19.70
2022-12-14T07:21:51.582Z,22.00
2022-12-14T07:22:50.861Z,21.80
2022-12-14T07:23:50.813Z,23.40
2022-12-14T07:24:50.829Z,24.80
2022-12-14T07:25:51.552Z,22.80
2022-12-14T07:26:51.597Z,25.40
2022-12-14T07:27:52.047Z,23.80
2022-12-14T07:28:50.786Z,22.90
2022-12-14T07:29:50.754Z,24.00
2022-12-14T07:30:50.776Z,21.30
2022-12-14T07:31:50.758Z,25.10
2022-12-14T07:32:51.110Z,24.10
2022-12-14T07:34:18.106Z,24.00
2022-12-14T07:34:50.713Z,23.50
2022-12-14T07:35:51.568Z,22.10
2022-12-14T07:36:51.339Z,23.00
2022-12-14T07:37:51.573Z,22.20
2022-12-14T07:38:50.665Z,23.30
2022-12-14T07:39:51.301Z,20.80
2022-12-14T07:40:52.318Z,24.60
2022-12-14T07:41:50.653Z,22.30
2022-12-14T07:42:51.580Z,21.20
2022-12-14T07:43:52.819Z,21.80
2022-12-14T07:44:51.614Z,22.60
2022-12-14T07:45:50.600Z,20.70
2022-12-14T07:46:51.466Z,20.80
2022-12-14T07:47:50.604Z,23.40
2022-12-14T07:48:54.559Z,20.70
2022-12-14T07:49:51.568Z,24.40
2022-12-14T07:50:51.695Z,21.40
2022-12-14T07:51:51.067Z,23.50
2022-12-14T07:52:52.138Z,20.90
2022-12-14T07:53:50.555Z,23.70
2022-12-14T07:54:50.520Z,23.60
2022-12-14T07:55:50.503Z,23.10
2022-12-14T07:56:50.506Z,20.80
2022-12-14T07:57:51.079Z,21.70
2022-12-14T07:58:50.462Z,23.20
2022-12-14T07:59:55.700Z,21.10
2022-12-14T08:00:51.180Z,22.30
2022-12-14T08:01:50.513Z,23.30
2022-12-14T08:02:50.499Z,20.30
2022-12-14T08:03:51.013Z,19.30
2022-12-14T08:04:51.110Z,19.40
2022-12-14T08:05:51.095Z,19.50
2022-12-14T08:06:50.381Z,23.10
2022-12-14T08:07:51.082Z,20.40
2022-12-14T08:08:50.396Z,20.20
2022-12-14T08:09:50.548Z,21.60
2022-12-14T08:10:50.344Z,18.90
2022-12-14T08:11:50.363Z,23.30
2022-12-14T08:12:51.062Z,20.90
2022-12-14T08:13:51.096Z,19.00
2022-12-14T08:14:50.297Z,20.80
2022-12-14T08:15:50.319Z,22.50
2022-12-14T08:16:50.315Z,24.40
2022-12-14T08:17:50.284Z,22.80
2022-12-14T08:18:52.182Z,20.50
2022-12-14T08:19:50.256Z,21.20
2022-12-14T08:20:53.247Z,22.70
2022-12-14T08:21:50.873Z,21.30
2022-12-14T08:22:50.606Z,21.30
2022-12-14T08:23:50.213Z,22.50
2022-12-14T08:24:50.219Z,21.00
2022-12-14T08:25:50.224Z,21.70
2022-12-14T08:26:50.173Z,21.10
2022-12-14T08:27:50.187Z,21.30
2022-12-14T08:28:50.180Z,23.00
2022-12-14T08:29:50.215Z,20.70
2022-12-14T08:30:50.160Z,21.50
2022-12-14T08:31:50.172Z,21.50
2022-12-14T08:32:51.792Z,19.70
2022-12-14T08:33:51.588Z,22.30
2022-12-14T08:34:50.094Z,21.00
2022-12-14T08:35:50.192Z,20.40
2022-12-14T08:36:50.092Z,21.10
2022-12-14T08:37:50.073Z,22.90
2022-12-14T08:38:50.686Z,20.10
2022-12-14T08:39:50.055Z,16.90
2022-12-14T08:40:50.054Z,19.70
2022-12-14T08:41:54.128Z,19.10
2022-12-14T08:42:50.041Z,20.80
2022-12-14T08:43:52.616Z,20.20
2022-12-14T08:44:49.996Z,21.40
2022-12-14T08:45:50.031Z,20.90
2022-12-14T08:46:51.681Z,22.80
2022-12-14T08:47:52.313Z,22.20
2022-12-14T08:48:49.974Z,22.50
2022-12-14T08:49:50.595Z,24.10
2022-12-14T08:50:50.111Z,24.10
2022-12-14T08:51:51.617Z,21.30
2022-12-14T08:52:51.592Z,20.00
2022-12-14T08:53:52.284Z,23.30
2022-12-14T08:54:49.928Z,20.80
2022-12-14T08:55:49.930Z,24.00
2022-12-14T08:56:52.135Z,21.90
2022-12-14T08:57:50.588Z,21.00
2022-12-14T08:58:49.866Z,20.40
2022-12-14T09:00:01.310Z,22.40
2022-12-14T09:00:50.615Z,21.90
2022-12-14T09:01:50.782Z,22.30
2022-12-14T09:02:50.228Z,18.80
2022-12-14T09:03:50.658Z,23.50
2022-12-14T09:04:50.588Z,22.10
2022-12-14T09:05:49.841Z,21.30
2022-12-14T09:06:49.780Z,23.20
2022-12-14T09:07:50.127Z,21.70
2022-12-14T09:08:50.075Z,21.50
2022-12-14T09:09:49.776Z,19.30
2022-12-14T09:10:49.742Z,21.30
2022-12-14T09:11:49.755Z,21.00
2022-12-14T09:12:49.780Z,21.50
2022-12-14T09:13:49.727Z,24.30
2022-12-14T09:14:50.598Z,19.90
2022-12-14T09:15:49.702Z,20.50
2022-12-14T09:16:49.748Z,21.40
2022-12-14T09:17:50.611Z,20.30
2022-12-14T09:18:50.586Z,20.60
2022-12-14T09:19:50.609Z,18.50
2022-12-14T09:20:49.645Z,18.40
2022-12-14T09:21:49.684Z,20.90
2022-12-14T09:22:49.618Z,18.10
2022-12-14T09:23:55.569Z,22.40
2022-12-14T09:24:50.588Z,19.80
2022-12-14T09:25:51.146Z,24.50
2022-12-14T09:26:50.131Z,23.00
2022-12-14T09:27:50.181Z,24.00
2022-12-14T09:28:49.780Z,21.10
2022-12-14T09:29:49.749Z,18.10
2022-12-14T09:30:49.678Z,20.80
2022-12-14T09:31:53.294Z,19.80
2022-12-14T09:32:50.604Z,24.50
2022-12-14T09:33:50.341Z,23.70
2022-12-14T09:34:50.592Z,23.20
2022-12-14T09:35:50.123Z,22.40
2022-12-14T09:36:49.503Z,23.40
2022-12-14T09:37:50.107Z,25.20
2022-12-14T09:38:52.671Z,19.00
2022-12-14T09:39:50.099Z,20.10
2022-12-14T09:40:50.114Z,20.90
2022-12-14T09:41:51.022Z,21.90
2022-12-14T09:42:50.877Z,21.20
2022-12-14T09:43:50.131Z,21.80
2022-12-14T09:44:54.039Z,24.20
2022-12-14T09:45:50.231Z,21.50
2022-12-14T09:46:51.058Z,21.00
2022-12-14T09:47:50.103Z,23.90
2022-12-14T09:48:52.684Z,20.50
2022-12-14T09:49:50.122Z,22.20
2022-12-14T09:50:49.338Z,23.20
2022-12-14T09:51:49.356Z,22.30
2022-12-14T09:52:50.096Z,22.60
2022-12-14T09:53:50.093Z,25.10
2022-12-14T09:54:50.993Z,28.20
2022-12-14T09:55:51.704Z,29.80
2022-12-14T09:56:49.299Z,27.30
2022-12-14T09:57:49.299Z,27.90
2022-12-14T09:58:50.958Z,23.30
2022-12-14T09:59:52.869Z,24.20
2022-12-14T10:00:53.794Z,24.70
2022-12-14T10:02:13.831Z,24.80
2022-12-14T10:02:50.491Z,25.80
2022-12-14T10:03:49.441Z,24.30
2022-12-14T10:04:50.903Z,26.30
2022-12-14T10:07:54.055Z,22.90
2022-12-14T12:37:24.561Z,20.10
2022-12-14T12:37:53.458Z,21.00
2022-12-14T12:38:53.262Z,18.70
2022-12-14T12:39:53.140Z,20.20
2022-12-14T12:40:53.146Z,21.60
2022-12-14T12:41:53.567Z,21.30
2022-12-14T12:42:53.112Z,20.20
2022-12-14T12:43:53.120Z,19.90
2022-12-14T12:44:53.111Z,21.80
2022-12-14T12:45:53.111Z,21.00
2022-12-14T12:47:22.848Z,20.80
2022-12-14T12:47:53.142Z,22.30
2022-12-14T12:48:53.067Z,21.70
2022-12-14T12:49:53.068Z,20.70
2022-12-14T12:50:53.055Z,20.70
2022-12-14T12:51:53.069Z,20.10
2022-12-14T12:52:55.475Z,22.50
2022-12-14T12:53:54.207Z,20.40
2022-12-14T12:54:53.017Z,21.60
2022-12-14T12:55:53.102Z,21.00
2022-12-14T12:56:52.991Z,24.30
2022-12-14T12:57:53.919Z,25.10
2022-12-14T12:58:53.760Z,23.90
2022-12-14T12:59:53.805Z,21.00
2022-12-14T13:00:52.942Z,22.10
2022-12-14T13:01:53.024Z,21.60
2022-12-14T13:02:53.068Z,23.60
2022-12-14T13:03:53.017Z,22.80
2022-12-14T13:04:53.120Z,21.70
2022-12-14T13:05:52.881Z,20.20
2022-12-14T13:06:52.885Z,22.90
2022-12-14T13:07:53.368Z,21.40
2022-12-14T13:08:52.930Z,20.50
2022-12-14T13:09:52.838Z,21.60
2022-12-14T13:11:24.559Z,22.30
2022-12-14T13:11:52.823Z,20.50
2022-12-14T13:12:52.837Z,25.30
2022-12-14T13:13:52.825Z,20.00
2022-12-14T13:14:52.812Z,19.80
2022-12-14T13:15:52.858Z,20.90
2022-12-14T13:16:52.778Z,20.30
2022-12-14T13:17:52.774Z,19.20
2022-12-14T13:19:13.239Z,22.00
2022-12-14T13:19:54.482Z,20.90
2022-12-14T13:20:52.739Z,20.90
2022-12-14T13:21:52.707Z,20.40
2022-12-14T13:22:52.728Z,22.90
2022-12-14T13:23:52.725Z,21.60
2022-12-14T13:24:58.602Z,20.50
2022-12-14T13:25:52.712Z,20.90
2022-12-14T13:26:59.849Z,23.50
2022-12-14T13:27:52.663Z,24.60
2022-12-14T13:28:52.652Z,23.90
2022-12-14T13:29:52.621Z,23.00
2022-12-14T13:30:52.743Z,21.10
2022-12-14T13:31:52.624Z,20.70
2022-12-14T13:32:52.632Z,20.40
2022-12-14T13:33:52.636Z,22.80
2022-12-14T13:34:52.603Z,19.90
2022-12-14T13:35:52.584Z,19.90
2022-12-14T13:36:52.607Z,20.20
2022-12-14T13:37:52.555Z,22.60
2022-12-14T13:38:52.606Z,20.30
2022-12-14T13:39:52.534Z,22.50
2022-12-14T13:40:52.548Z,19.50
2022-12-14T13:41:52.501Z,22.00
2022-12-14T13:42:52.522Z,21.60
2022-12-14T13:43:52.505Z,24.10
2022-12-14T13:44:52.506Z,23.40
2022-12-14T13:45:53.261Z,22.60
2022-12-14T13:46:52.570Z,19.60
2022-12-14T13:47:52.533Z,19.90
2022-12-14T13:48:52.441Z,22.60
2022-12-14T13:50:18.427Z,22.70
2022-12-14T13:50:59.623Z,19.50
2022-12-14T13:51:52.519Z,21.60
2022-12-14T13:52:52.399Z,22.30
2022-12-14T13:53:52.428Z,23.30
2022-12-14T13:54:52.376Z,24.60
2022-12-14T13:55:52.440Z,24.80
2022-12-14T13:56:52.366Z,26.40
2022-12-14T13:57:52.345Z,22.60
2022-12-14T13:58:52.335Z,20.70
2022-12-14T13:59:52.355Z,20.80
2022-12-14T14:00:52.362Z,22.80
2022-12-14T14:01:52.348Z,21.90
2022-12-14T14:02:52.469Z,20.90
2022-12-14T14:03:52.460Z,21.10
2022-12-14T14:04:52.313Z,21.50
2022-12-14T14:05:52.288Z,21.30
2022-12-14T14:06:52.306Z,20.40
2022-12-14T14:07:52.229Z,20.70
2022-12-14T14:08:52.252Z,17.80
2022-12-14T14:09:52.225Z,20.40
2022-12-14T14:11:02.454Z,20.10
2022-12-14T14:11:52.247Z,17.50
2022-12-14T14:12:52.206Z,20.30
2022-12-14T14:13:52.171Z,18.00
2022-12-14T14:14:52.175Z,19.50
2022-12-14T14:16:26.376Z,19.70
2022-12-14T14:16:52.289Z,21.60
2022-12-14T14:17:52.160Z,21.10
2022-12-14T14:18:52.254Z,21.20
2022-12-14T14:19:52.153Z,20.10
2022-12-14T14:20:58.607Z,21.20
2022-12-14T14:22:21.865Z,23.20
2022-12-14T14:22:52.227Z,21.10
2022-12-14T14:23:52.066Z,22.50
2022-12-14T14:24:52.139Z,20.50
2022-12-14T14:25:52.055Z,19.60
2022-12-14T14:26:52.051Z,22.20
2022-12-14T14:27:52.051Z,21.70
2022-12-14T14:28:52.068Z,21.60
2022-12-14T14:29:52.051Z,21.70
2022-12-14T14:30:52.010Z,22.30
2022-12-14T14:31:52.115Z,20.70
2022-12-14T14:32:53.904Z,23.20
2022-12-14T14:33:52.008Z,21.90
2022-12-14T14:34:51.998Z,23.00
2022-12-14T14:35:51.962Z,23.60
2022-12-14T14:36:51.943Z,19.30
2022-12-14T14:37:51.966Z,20.50
2022-12-14T14:38:51.921Z,21.70
2022-12-14T14:39:58.969Z,21.90
2022-12-14T14:41:15.442Z,21.20
2022-12-14T14:41:51.906Z,23.70
2022-12-14T14:42:52.653Z,21.90
2022-12-14T14:43:52.559Z,21.40
2022-12-14T14:44:52.503Z,23.50
2022-12-14T14:45:51.888Z,21.40
2022-12-14T14:46:52.524Z,19.00
2022-12-14T14:47:52.531Z,22.10
2022-12-14T14:48:52.558Z,22.30
2022-12-14T14:49:51.813Z,19.80
2022-12-14T14:50:51.816Z,22.10
2022-12-14T14:51:52.543Z,20.90
2022-12-14T14:52:52.536Z,22.80
2022-12-14T14:53:52.523Z,22.90
2022-12-14T14:55:35.318Z,23.10
2022-12-14T14:55:53.777Z,23.10
2022-12-14T14:56:52.471Z,23.40
2022-12-14T14:57:51.744Z,24.90
2022-12-14T14:58:51.749Z,22.40
2022-12-14T14:59:51.740Z,21.10
2022-12-14T15:00:52.365Z,21.30
2022-12-14T15:01:51.726Z,24.60
2022-12-14T15:02:53.509Z,28.90
2022-12-14T15:03:52.489Z,24.40
2022-12-14T15:04:51.817Z,23.20
2022-12-14T15:05:52.389Z,22.40
2022-12-14T15:06:52.320Z,22.90
2022-12-14T15:07:51.890Z,21.50
2022-12-14T15:08:51.647Z,22.60
2022-12-14T15:09:52.386Z,20.70
2022-12-14T15:10:51.599Z,23.40
2022-12-14T15:11:53.270Z,21.00
2022-12-14T15:12:52.302Z,24.40
2022-12-14T15:13:51.602Z,21.50
2022-12-14T15:14:51.591Z,22.80
2022-12-14T15:15:51.771Z,22.40
2022-12-14T15:16:51.605Z,25.00
2022-12-14T15:17:53.277Z,25.20
2022-12-14T15:18:52.265Z,25.90
2022-12-14T15:19:51.507Z,25.50
2022-12-14T15:20:53.212Z,24.90
2022-12-14T15:21:51.805Z,26.20
2022-12-14T15:22:51.481Z,25.70